Jemez Springs, Valles Caldera, New Mexico Weather observations

Data are for 10 minute period ending at time listed.
 Day   Time   Solar   Ave.   Ave.  Ave.  Vector  Max.   Baro.   Total    
  of    of     Rad.   Air    Rel.  Wind   Wind   Wind  Press.  Precip.   
Year   Day            Temp.  Hum.  Speed  Dir.   Gust                    
2016   (MST)  Kw/m2    F      %     mph   deg.    mph    mb.     in.     
-------------------------------------------------------------------------
 121    0:00   0.00   36.2    95    2.7   348     6.6   802.5    0.00 
 121    0:10   0.00   36.5    95    2.1    44     3.6   802.5    0.00 
 121    0:20   0.00   36.7    94    2.7     4     4.8   802.5    0.00 
 121    0:30   0.00   36.8    94    3.4   359     6.0   802.5    0.00 
 121    0:40   0.00   36.6    94    3.2    30     5.7   802.5    0.00 
 121    0:50   0.00   36.7    94    3.4     3     6.0   802.5    0.00 
 121    1:00   0.00   36.9    94    4.1   350     6.6   802.4    0.00 
 121    1:10   0.00   37.1    93    4.7   357     8.4   802.4    0.00 
 121    1:20   0.00   37.3    92    3.2    18     6.0   802.3    0.00 
 121    1:30   0.00   37.1    93    3.3    13     6.0   802.3    0.00 
 121    1:40   0.00   37.0    93    0.7    60     4.2   802.2    0.00 
 121    1:50   0.00   37.2    94    2.9   343     4.8   802.2    0.00 
 121    2:00   0.00   37.5    94    1.3    21     4.8   802.1    0.00 
 121    2:10   0.00   37.4    94    3.4    35     5.4   802.2    0.00 
 121    2:20   0.00   37.8    94    3.4     3     6.0   802.2    0.00 
 121    2:30   0.00   37.6    92    2.6     8     4.8   802.1    0.00 
 121    2:40   0.00   36.9    93    2.1    10     4.2   802.1    0.00 
 121    2:50   0.00   36.7    94    3.1     6     5.4   802.0    0.00 
 121    3:00   0.00   36.8    95    2.2   341     4.2   802.1    0.00 
 121    3:10   0.00   36.8    95    2.6    16     4.2   802.0    0.00 
 121    3:20   0.00   36.8    95    2.3    11     4.2   802.1    0.00 
 121    3:30   0.00   36.6    95    1.9     9     3.6   802.1    0.00 
 121    3:40   0.00   36.6    95    2.7     6     4.8   802.0    0.00 
 121    3:50   0.00   36.5    95    3.6    10     6.0   801.9    0.00 
 121    4:00   0.00   36.0    95    1.7    24     3.6   801.9    0.00 
 121    4:10   0.00   35.6    95    2.1    38     3.6   801.9    0.00 
 121    4:20   0.00   35.3    95    2.9     5     4.8   801.9    0.00 
 121    4:30   0.00   35.1    96    3.3   357     6.0   801.7    0.00 
 121    4:40   0.00   35.0    96    3.6     5     6.0   801.7    0.00 
 121    4:50   0.00   34.7    95    2.6     8     4.8   801.7    0.00 
 121    5:00   0.00   34.5    95    4.5    10     7.2   801.7    0.00 
 121    5:10   0.00   34.4    95    4.5     9     7.2   801.7    0.00 
 121    5:20   0.00   34.3    95    4.5   358     8.4   801.8    0.00 
 121    5:30   0.01   34.4    95    3.1    19     6.6   801.9    0.00 
 121    5:40   0.02   34.4    95    2.4   356     4.8   801.9    0.00 
 121    5:50   0.02   34.6    94    4.3    33     6.6   802.1    0.00 
 121    6:00   0.03   34.8    94    4.8    13     7.2   802.1    0.00 
 121    6:10   0.05   34.9    93    4.4     7     7.2   802.2    0.00 
 121    6:20   0.06   35.4    92    4.8     8     9.0   802.2    0.00 
 121    6:30   0.09   35.9    91    4.2    20     7.8   802.2    0.00 
 121    6:40   0.12   36.6    90    4.6     5     8.4   802.3    0.00 
 121    6:50   0.24   37.8    88    5.0    11     7.8   802.5    0.01 
 121    7:00   0.16   39.5    86    3.0   349     5.4   802.5    0.00 
 121    7:10   0.17   40.2    84    1.0    43     4.8   802.6    0.00 
 121    7:20   0.33   41.2    82    3.0    42     5.4   802.6    0.00 
 121    7:30   0.36   42.4    79    3.6    15     6.6   802.7    0.00 
 121    7:40   0.24   43.0    80    3.1    11     7.2   802.7    0.00 
 121    7:50   0.34   43.9    79    2.6    28     5.4   802.7    0.00 
 121    8:00   0.58   46.2    68    4.4    93     7.2   802.7    0.00 
 121    8:10   0.74   47.8    64    4.9    58     9.6   802.6    0.00 
 121    8:20   0.49   47.6    63    5.5    31    11.3   802.7    0.00 
 121    8:30   0.28   46.8    64    2.9    98     5.4   802.8    0.00 
 121    8:40   0.72   48.3    64    3.7   118     7.2   802.8    0.00 
 121    8:50   0.47   49.0    60    3.9    77     6.6   802.8    0.00 
 121    9:00   0.76   50.0    59    4.3   132     9.0   802.8    0.00 
 121    9:10   0.53   49.9    54    6.8   283    15.2   802.8    0.00 
 121    9:20   0.34   49.0    52    5.7    21    12.5   802.8    0.00 
 121    9:30   0.35   48.9    52    3.2    69     6.0   802.8    0.00 
 121    9:40   0.70   49.9    52    4.3   154     9.0   802.9    0.00 
 121    9:50   0.72   50.3    51    5.8   143    12.5   802.8    0.01 
 121   10:00   0.72   51.0    50    4.3   106     9.6   802.7    0.00 
 121   10:10   0.59   51.6    48    5.2    40     9.0   802.7    0.00 
 121   10:20   0.66   51.6    46    5.2    41    10.8   802.6    0.00 
 121   10:30   0.73   52.2    46    5.6    36    13.7   802.4    0.01 
 121   10:40   0.90   53.1    44    8.8    29    16.7   802.4    0.00 
 121   10:50   0.96   52.8    42    4.8    63     9.6   802.3    0.01 
 121   11:00   0.81   54.5    41    4.8    39     9.6   802.2    0.00 
 121   11:10   0.31   53.4    40    7.4    48    13.7   802.1    0.00 
 121   11:20   0.83   53.8    41    6.0    47    12.5   802.1    0.01 
 121   11:30   0.81   54.3    37    4.2   146    11.3   802.0    0.00 
 121   11:40   0.77   55.6    34    5.2   107     8.4   801.8    0.00 
 121   11:50   0.41   54.5    32    7.6    23    17.9   801.7    0.00 
 121   12:00   0.31   54.0    33    7.0   175    11.9   801.7    0.00 
 121   12:10   0.29   53.1    35    7.7   171    13.7   801.7    0.00 
 121   12:20   0.48   53.3    37    6.1   164    13.7   801.7    0.01 
 121   12:30   0.95   54.4    36    9.4   184    15.5   801.6    0.00 
 121   12:40   0.67   53.7    37   11.0   178    17.9   801.6    0.00 
 121   12:50   0.54   53.2    40    9.0   179    16.1   801.6    0.00 
 121   13:00   0.22   52.5    42    9.3   180    16.1   801.8    0.00 
 121   13:10   0.20   51.2    47    9.2   180    16.7   801.9    0.00 
 121   13:20   0.17   51.0    49    8.1   180    13.1   802.1    0.00 
 121   13:30   0.23   50.4    52    8.3   174    13.1   802.0    0.00 
 121   13:40   0.96   51.8    55    4.7   200    10.2   801.8    0.00 
 121   13:50   0.85   53.8    43    3.9   175     7.8   801.8    0.00 
 121   14:00   0.77   54.5    40    3.2   148     8.4   801.6    0.00 
 121   14:10   0.83   55.3    36    3.5   119     6.9   801.4    0.01 
 121   14:20   0.84   56.4    36    4.0   162     8.4   801.1    0.00 
 121   14:30   0.44   56.2    36    3.5   154    11.3   801.0    0.00 
 121   14:40   0.62   56.9    36    4.5   161    11.3   800.8    0.00 
 121   14:50   0.44   56.5    34    4.1   156     8.4   800.7    0.00 
 121   15:00   0.35   56.6    34    5.4   145    10.8   800.6    0.00 
 121   15:10   0.58   57.4    33    5.7   184    12.5   800.5    0.01 
 121   15:20   0.45   58.3    32    4.0   154    13.1   800.6    0.00 
 121   15:30   0.20   55.9    36    7.4   347    13.7   800.6    0.00 
 121   15:40   0.16   54.1    40    8.2     8    13.1   800.6    0.00 
 121   15:50   0.17   53.1    47    7.5   359    13.1   800.7    0.00 
 121   16:00   0.20   53.2    48    6.0   340     9.6   800.7    0.00 
 121   16:10   0.16   53.6    48    6.3   341    10.8   800.9    0.00 
 121   16:20   0.12   52.6    53    6.5    14    10.8   801.0    0.00 
 121   16:30   0.10   52.2    54    6.7     4    10.8   801.0    0.00 
 121   16:40   0.06   52.0    57    5.9     8    10.2   801.1    0.00 
 121   16:50   0.04   51.3    58    6.3   333    13.7   801.4    0.00 
 121   17:00   0.08   48.3    71    5.2   339    12.5   801.7    0.01 
 121   17:10   0.11   47.3    83    1.7    10     4.8   801.6    0.00 
 121   17:20   0.10   47.4    85    3.7     6     7.2   801.7    0.01 

Return to Jemez Springs, Valles Caldera graphs page.


Western Regional Climate Center,wrcc@dri.edu